Time;durP1;ratioP1;P1;durP2;ratioP2;P2;SDS_P1;SDS_P2;PMS_P1;PMS_P2;Temp;Humidity;BMP_temperature;BMP_pressure;BME280_temperature;BME280_humidity;BME280_pressure;Samples;Min_cycle;Max_cycle;Signal;HPM_P1;HPM_P2
2021/08/27 00:00:13;;;;;;;7.20;2.00;;;15.80;99.90;;;;;;2630179;54;20133;-75
2021/08/27 00:02:41;;;;;;;4.20;2.25;;;15.70;99.90;;;;;;2629505;47;20157;-76
2021/08/27 00:05:12;;;;;;;5.60;2.22;;;15.50;99.90;;;;;;2630791;54;20182;-75
2021/08/27 00:07:41;;;;;;;5.15;2.28;;;15.50;99.90;;;;;;2634888;39;20700;-76
2021/08/27 00:10:10;;;;;;;4.80;2.30;;;15.40;99.90;;;;;;2630264;47;20130;-76
2021/08/27 00:12:40;;;;;;;6.47;2.92;;;15.40;99.90;;;;;;2631021;47;20149;-75
2021/08/27 00:15:13;;;;;;;8.30;2.80;;;15.40;99.90;;;;;;2634261;46;20169;-76
2021/08/27 00:17:42;;;;;;;4.90;2.30;;;15.50;99.90;;;;;;2630762;47;20173;-78
2021/08/27 00:20:13;;;;;;;11.02;3.90;;;15.40;99.90;;;;;;2630304;54;20797;-76
2021/08/27 00:22:42;;;;;;;3.42;2.05;;;15.50;99.90;;;;;;2630539;46;20146;-75
2021/08/27 00:25:12;;;;;;;5.25;2.25;;;15.50;99.90;;;;;;2630496;47;20130;-76
2021/08/27 00:27:41;;;;;;;5.25;2.33;;;15.70;99.90;;;;;;2630528;54;20176;-77
2021/08/27 00:30:13;;;;;;;4.10;2.08;;;15.70;99.90;;;;;;2630839;47;20157;-77
2021/08/27 00:32:42;;;;;;;4.85;2.30;;;15.50;99.90;;;;;;2630321;47;20158;-76
2021/08/27 00:35:11;;;;;;;2.55;2.20;;;15.60;99.90;;;;;;2630323;47;20145;-75
2021/08/27 00:37:40;;;;;;;2.95;2.45;;;15.60;99.90;;;;;;2630198;54;20229;-76
2021/08/27 00:40:12;;;;;;;5.80;2.08;;;15.70;99.90;;;;;;2629905;54;20173;-76
2021/08/27 00:42:41;;;;;;;3.13;2.03;;;15.50;99.90;;;;;;2629783;47;20130;-76
2021/08/27 00:45:13;;;;;;;5.00;2.50;;;15.60;99.90;;;;;;2630131;54;20158;-76
2021/08/27 00:47:42;;;;;;;2.83;2.28;;;15.60;99.90;;;;;;2630698;54;20166;-76
2021/08/27 00:50:12;;;;;;;5.20;2.13;;;15.50;99.90;;;;;;2630951;47;20149;-76
2021/08/27 00:52:43;;;;;;;4.68;2.25;;;15.20;99.90;;;;;;2630868;47;20841;-77
2021/08/27 00:55:12;;;;;;;3.53;2.33;;;15.40;99.90;;;;;;2630611;46;20141;-76
2021/08/27 00:57:41;;;;;;;4.18;1.90;;;15.40;99.90;;;;;;2630593;47;20176;-76
2021/08/27 01:00:14;;;;;;;4.30;2.10;;;15.50;99.90;;;;;;2630659;47;20141;-77
2021/08/27 01:02:43;;;;;;;5.15;2.55;;;15.50;99.90;;;;;;2630607;47;20146;-76
2021/08/27 01:05:13;;;;;;;4.18;2.88;;;15.40;99.90;;;;;;2630390;47;20160;-77
2021/08/27 01:07:51;;;;;;;4.07;2.30;;;15.40;99.90;;;;;;2630625;47;20481;-77
2021/08/27 01:10:24;;;;;;;4.40;2.65;;;15.30;99.90;;;;;;2630731;47;20149;-76
2021/08/27 01:13:02;;;;;;;3.90;1.73;;;15.30;99.90;;;;;;2630684;47;20676;-76
2021/08/27 01:15:41;;;;;;;6.57;1.90;;;15.30;99.90;;;;;;2630610;54;20145;-77
2021/08/27 01:18:17;;;;;;;5.75;2.15;;;15.30;99.90;;;;;;2630655;54;20187;-76
2021/08/27 01:21:26;;;;;;;4.25;1.77;;;15.40;99.90;;;;;;2630891;47;20189;-76
2021/08/27 01:23:57;;;;;;;5.40;1.80;;;15.40;99.90;;;;;;2630486;47;20145;-77
2021/08/27 01:26:32;;;;;;;6.88;2.55;;;15.30;99.90;;;;;;2630594;54;20664;-76
2021/08/27 01:29:02;;;;;;;4.15;1.77;;;15.20;99.90;;;;;;2630856;47;20178;-76
2021/08/27 01:31:38;;;;;;;4.38;2.50;;;15.00;99.90;;;;;;2630198;47;20683;-77
2021/08/27 01:34:26;;;;;;;4.75;2.47;;;15.00;99.90;;;;;;2630805;54;20133;-76
2021/08/27 01:36:56;;;;;;;6.03;3.08;;;15.10;99.90;;;;;;2630537;47;20142;-77
2021/08/27 01:39:30;;;;;;;3.88;1.88;;;14.90;99.90;;;;;;2630243;54;20145;-76
2021/08/27 01:42:01;;;;;;;5.63;2.58;;;14.90;99.90;;;;;;2630477;47;20145;-76
2021/08/27 01:44:31;;;;;;;4.13;1.95;;;15.00;99.90;;;;;;2629857;47;20141;-76
2021/08/27 01:47:02;;;;;;;4.88;2.30;;;14.80;99.90;;;;;;2630252;47;20151;-77
2021/08/27 01:49:33;;;;;;;5.55;2.20;;;14.80;99.90;;;;;;2629979;47;20188;-76
2021/08/27 01:52:05;;;;;;;5.68;2.08;;;15.10;99.90;;;;;;2630287;54;20150;-76
2021/08/27 01:54:35;;;;;;;3.90;2.25;;;15.10;99.90;;;;;;2630167;54;20152;-77
2021/08/27 01:57:05;;;;;;;5.40;2.78;;;14.90;99.90;;;;;;2630526;54;20156;-76
2021/08/27 01:59:38;;;;;;;5.18;1.95;;;15.10;99.90;;;;;;2631149;54;20134;-77
2021/08/27 02:02:08;;;;;;;5.15;2.45;;;15.10;99.90;;;;;;2631672;54;20133;-76
2021/08/27 02:04:42;;;;;;;4.22;2.25;;;14.90;99.90;;;;;;2631488;54;20152;-76
2021/08/27 02:07:12;;;;;;;2.35;2.08;;;15.10;99.90;;;;;;2631569;54;20183;-77
2021/08/27 02:09:43;;;;;;;2.67;2.15;;;15.20;99.90;;;;;;2630974;46;20199;-77
2021/08/27 02:12:12;;;;;;;3.05;2.25;;;15.10;99.90;;;;;;2631462;54;20705;-76
2021/08/27 02:14:43;;;;;;;7.40;2.75;;;15.00;99.90;;;;;;2631099;54;20137;-76
2021/08/27 02:17:12;;;;;;;5.47;2.03;;;14.90;99.90;;;;;;2631028;54;20157;-77
2021/08/27 02:19:44;;;;;;;6.25;2.63;;;15.00;99.90;;;;;;2629241;47;20126;-78
2021/08/27 02:22:16;;;;;;;4.28;1.90;;;15.00;99.90;;;;;;2630154;47;20146;-76
2021/08/27 02:24:51;;;;;;;3.35;2.20;;;15.10;99.90;;;;;;2630417;54;20153;-76
2021/08/27 02:27:22;;;;;;;6.30;2.13;;;15.00;99.90;;;;;;2630645;54;20248;-77
2021/08/27 02:29:53;;;;;;;10.52;2.65;;;15.00;99.90;;;;;;2630873;54;20134;-75
2021/08/27 02:32:23;;;;;;;3.70;2.30;;;15.00;99.90;;;;;;2631452;54;20204;-77
2021/08/27 02:35:00;;;;;;;4.43;2.17;;;15.10;99.90;;;;;;2631005;47;20141;-76
2021/08/27 02:37:33;;;;;;;5.05;2.28;;;14.90;99.90;;;;;;2631045;47;20153;-76
2021/08/27 02:40:02;;;;;;;2.58;1.90;;;15.00;99.90;;;;;;2631498;54;20145;-75
2021/08/27 02:42:33;;;;;;;4.43;2.42;;;15.00;99.90;;;;;;2631072;47;20130;-76
2021/08/27 02:45:05;;;;;;;3.88;2.38;;;14.90;99.90;;;;;;2631145;54;20145;-76
2021/08/27 02:47:33;;;;;;;3.10;2.10;;;14.80;99.90;;;;;;2631416;47;20172;-76
2021/08/27 02:50:06;;;;;;;2.90;1.55;;;14.90;99.90;;;;;;2631108;54;20169;-81
2021/08/27 02:52:39;;;;;;;2.75;2.30;;;15.00;99.90;;;;;;2633390;46;20161;-76
2021/08/27 02:55:13;;;;;;;3.45;2.30;;;14.90;99.90;;;;;;2630928;47;20129;-76
2021/08/27 02:57:49;;;;;;;6.93;2.45;;;15.00;99.90;;;;;;2630425;47;20191;-76
2021/08/27 03:00:19;;;;;;;5.63;2.50;;;14.80;99.90;;;;;;2630882;47;20153;-76
2021/08/27 03:02:50;;;;;;;3.45;1.73;;;14.80;99.90;;;;;;2634260;39;20732;-76
2021/08/27 03:05:26;;;;;;;5.18;2.08;;;14.70;99.90;;;;;;2630667;46;20180;-75
2021/08/27 03:08:01;;;;;;;5.72;2.38;;;14.90;99.90;;;;;;2632231;46;20157;-75
2021/08/27 03:10:33;;;;;;;6.95;2.70;;;14.80;99.90;;;;;;2631593;39;20456;-76
2021/08/27 03:13:06;;;;;;;2.08;1.85;;;14.70;99.90;;;;;;2630800;54;20129;-76
2021/08/27 03:15:41;;;;;;;7.03;2.17;;;14.80;99.90;;;;;;2631302;54;20201;-76
2021/08/27 03:18:14;;;;;;;6.22;2.55;;;14.70;99.90;;;;;;2631387;47;20171;-76
2021/08/27 03:20:53;;;;;;;3.05;1.90;;;14.60;99.90;;;;;;2631315;54;20197;-75
2021/08/27 03:23:24;;;;;;;5.78;2.60;;;14.50;99.90;;;;;;2631131;47;20140;-76
2021/08/27 03:25:55;;;;;;;7.15;2.80;;;14.40;99.90;;;;;;2631220;47;20176;-76
2021/08/27 03:28:29;;;;;;;5.05;2.33;;;14.50;99.90;;;;;;2631190;54;21370;-76
2021/08/27 03:30:59;;;;;;;6.45;2.38;;;14.20;99.90;;;;;;2630861;54;20169;-76
2021/08/27 03:33:29;;;;;;;6.00;2.20;;;14.20;99.90;;;;;;2630098;54;20153;-76
2021/08/27 03:36:02;;;;;;;4.13;2.03;;;14.00;99.90;;;;;;2629321;47;20157;-76
2021/08/27 03:38:32;;;;;;;5.13;2.83;;;13.90;99.90;;;;;;2630057;47;20183;-76
2021/08/27 03:41:01;;;;;;;8.40;2.58;;;14.00;99.90;;;;;;2629956;54;20700;-75
2021/08/27 03:43:33;;;;;;;4.45;2.83;;;14.20;99.90;;;;;;2629809;54;20129;-75
2021/08/27 03:46:03;;;;;;;10.40;2.85;;;14.10;99.90;;;;;;2629723;46;20736;-75
2021/08/27 03:48:32;;;;;;;3.83;2.42;;;14.20;99.90;;;;;;2640288;39;20862;-75
2021/08/27 03:51:04;;;;;;;6.55;3.22;;;14.20;99.90;;;;;;2629199;54;20145;-75
2021/08/27 03:53:35;;;;;;;4.47;2.20;;;14.20;99.90;;;;;;2632503;39;20587;-75
2021/08/27 03:56:05;;;;;;;5.13;2.60;;;14.10;99.90;;;;;;2629567;54;20197;-75
2021/08/27 03:58:34;;;;;;;6.20;2.83;;;14.00;99.90;;;;;;2629070;47;20180;-76
2021/08/27 04:01:02;;;;;;;4.18;2.92;;;14.10;99.90;;;;;;2630145;39;20556;-76
2021/08/27 04:03:32;;;;;;;5.38;2.05;;;14.10;99.90;;;;;;2629229;54;20163;-75
2021/08/27 04:06:06;;;;;;;7.30;2.60;;;14.00;99.90;;;;;;2629238;46;20137;-75
2021/08/27 04:08:37;;;;;;;5.38;2.85;;;14.10;99.90;;;;;;2629897;46;20160;-76
2021/08/27 04:11:07;;;;;;;4.95;2.65;;;14.10;99.90;;;;;;2630508;54;20240;-75
2021/08/27 04:13:36;;;;;;;6.80;2.15;;;14.30;99.90;;;;;;2630059;46;20192;-77
2021/08/27 04:16:05;;;;;;;4.70;2.40;;;14.20;99.90;;;;;;2629212;47;20714;-76
2021/08/27 04:18:34;;;;;;;9.32;3.00;;;14.20;99.90;;;;;;2630269;54;20153;-77
2021/08/27 04:21:06;;;;;;;4.93;2.85;;;14.20;99.90;;;;;;2629321;47;20157;-79
2021/08/27 04:23:34;;;;;;;9.10;3.38;;;14.20;99.90;;;;;;2630243;54;20156;-75
2021/08/27 04:26:04;;;;;;;4.88;2.30;;;14.10;99.90;;;;;;2629773;54;20164;-75
2021/08/27 04:28:33;;;;;;;5.53;3.35;;;14.20;99.90;;;;;;2629388;54;20169;-76
2021/08/27 04:31:02;;;;;;;6.75;2.83;;;14.20;99.90;;;;;;2627027;39;20664;-76
2021/08/27 04:33:30;;;;;;;6.63;2.85;;;14.00;99.90;;;;;;2625847;54;20157;-76
2021/08/27 04:35:59;;;;;;;5.93;2.75;;;14.10;99.90;;;;;;2623915;47;20153;-75
2021/08/27 04:38:30;;;;;;;5.63;2.58;;;14.10;99.90;;;;;;2624928;54;20187;-76
2021/08/27 04:40:59;;;;;;;8.15;2.60;;;14.00;99.90;;;;;;2626744;54;20145;-76
2021/08/27 04:43:28;;;;;;;5.97;2.42;;;13.90;99.90;;;;;;2625156;54;20154;-75
2021/08/27 04:45:56;;;;;;;8.30;2.80;;;14.10;99.90;;;;;;2626510;39;20629;-76
2021/08/27 04:48:25;;;;;;;5.95;3.00;;;14.10;99.90;;;;;;2625393;54;20165;-76
2021/08/27 04:50:54;;;;;;;7.32;2.92;;;14.20;99.90;;;;;;2625461;47;20150;-76
2021/08/27 04:53:23;;;;;;;7.47;2.78;;;14.10;99.90;;;;;;2624514;54;20149;-76
2021/08/27 04:55:54;;;;;;;5.63;2.42;;;13.90;99.90;;;;;;2625076;54;20168;-76
2021/08/27 04:58:25;;;;;;;5.18;2.38;;;13.90;99.90;;;;;;2625442;47;20185;-75
2021/08/27 05:00:54;;;;;;;6.35;3.03;;;14.00;99.90;;;;;;2624839;54;20181;-76
2021/08/27 05:03:22;;;;;;;5.93;3.33;;;14.00;99.90;;;;;;2626006;39;20564;-76
2021/08/27 05:05:51;;;;;;;8.98;3.75;;;14.00;99.90;;;;;;2624559;47;20164;-76
2021/08/27 05:08:20;;;;;;;10.45;3.78;;;14.00;99.90;;;;;;2625240;47;20187;-77
2021/08/27 05:10:49;;;;;;;5.45;2.67;;;13.90;99.90;;;;;;2625103;54;20794;-77
2021/08/27 05:13:20;;;;;;;4.03;3.13;;;13.70;99.90;;;;;;2625125;47;20153;-75
2021/08/27 05:15:49;;;;;;;6.82;3.53;;;13.70;99.90;;;;;;2625661;54;20141;-77
2021/08/27 05:18:18;;;;;;;7.57;3.20;;;13.70;99.90;;;;;;2627131;54;20188;-76
2021/08/27 05:20:47;;;;;;;4.65;2.80;;;13.80;99.90;;;;;;2628658;54;20311;-75
2021/08/27 05:23:16;;;;;;;7.05;3.40;;;13.90;99.90;;;;;;2629682;54;20139;-75
2021/08/27 05:25:45;;;;;;;7.47;3.53;;;14.00;99.90;;;;;;2628302;54;20868;-76
2021/08/27 05:28:13;;;;;;;4.07;3.17;;;14.10;99.90;;;;;;2627478;51;20245;-76
2021/08/27 05:30:45;;;;;;;11.02;3.15;;;14.00;99.90;;;;;;2627473;54;20152;-75
2021/08/27 05:33:15;;;;;;;9.65;4.00;;;14.00;99.90;;;;;;2626475;54;20163;-75
2021/08/27 05:35:44;;;;;;;5.60;2.53;;;13.90;99.90;;;;;;2623689;54;20157;-77
2021/08/27 05:38:12;;;;;;;7.00;3.90;;;14.10;99.90;;;;;;2624973;39;20684;-75
2021/08/27 05:40:41;;;;;;;5.22;3.63;;;14.20;99.90;;;;;;2623409;54;20171;-77
2021/08/27 05:43:10;;;;;;;6.32;3.63;;;14.00;99.90;;;;;;2622474;46;20158;-75
2021/08/27 05:45:40;;;;;;;7.75;2.85;;;14.00;99.90;;;;;;2622988;54;20163;-75
2021/08/27 05:48:11;;;;;;;8.43;3.42;;;14.10;99.90;;;;;;2624266;47;20191;-76
2021/08/27 05:50:40;;;;;;;8.65;3.92;;;14.10;99.90;;;;;;2625669;54;20141;-76
2021/08/27 05:53:09;;;;;;;3.78;3.13;;;14.00;99.90;;;;;;2625833;47;20248;-76
2021/08/27 05:55:38;;;;;;;4.60;3.47;;;14.00;99.90;;;;;;2625712;47;20256;-77
2021/08/27 05:58:07;;;;;;;6.10;3.13;;;14.20;99.90;;;;;;2624907;47;20203;-76
2021/08/27 17:59:41;;;;;;;1.60;1.50;;;14.20;99.90;;;;;;2633029;39;20879;-79
2021/08/27 18:02:10;;;;;;;1.98;1.60;;;17.00;99.90;;;;;;2630669;47;20133;-79
2021/08/27 18:04:39;;;;;;;2.67;1.70;;;16.90;99.90;;;;;;2630453;47;20153;-79
2021/08/27 18:07:10;;;;;;;3.92;1.92;;;16.80;99.90;;;;;;2630725;47;20126;-79
2021/08/27 18:09:38;;;;;;;3.22;2.13;;;16.90;99.90;;;;;;2630629;47;20138;-78
2021/08/27 18:12:08;;;;;;;1.92;1.50;;;16.70;99.90;;;;;;2630664;54;20149;-79
2021/08/27 18:14:37;;;;;;;4.05;1.88;;;16.60;99.90;;;;;;2630399;47;20153;-78
2021/08/27 18:17:10;;;;;;;1.75;1.65;;;16.70;99.90;;;;;;2630667;47;20201;-79
2021/08/27 18:19:39;;;;;;;1.50;1.40;;;16.70;99.90;;;;;;2630694;47;20130;-79
2021/08/27 18:22:08;;;;;;;2.03;1.60;;;16.50;99.90;;;;;;2630522;54;20186;-79
2021/08/27 18:24:36;;;;;;;1.33;1.23;;;16.50;99.90;;;;;;2630419;47;20148;-78
2021/08/27 18:27:06;;;;;;;2.60;2.40;;;16.30;99.90;;;;;;2630644;54;20156;-78
2021/08/27 18:29:34;;;;;;;1.98;1.83;;;16.50;99.90;;;;;;2630435;54;20229;-78
2021/08/27 18:32:03;;;;;;;2.90;1.48;;;16.50;99.90;;;;;;2630664;47;20173;-79
2021/08/27 18:34:35;;;;;;;2.17;1.90;;;16.30;99.90;;;;;;2630261;47;20929;-78
2021/08/27 18:37:03;;;;;;;1.50;1.35;;;16.10;99.90;;;;;;2630500;47;20141;-78
2021/08/27 18:39:32;;;;;;;1.50;1.40;;;16.20;99.90;;;;;;2630522;47;20149;-79
2021/08/27 18:42:01;;;;;;;2.08;1.98;;;16.10;99.90;;;;;;2631063;39;20871;-80
2021/08/27 18:44:30;;;;;;;1.70;1.60;;;16.00;99.90;;;;;;2631251;54;20192;-78
2021/08/27 18:46:58;;;;;;;2.25;1.48;;;16.20;99.90;;;;;;2631362;54;20134;-78
2021/08/27 18:49:27;;;;;;;1.92;1.58;;;16.20;99.90;;;;;;2631242;54;20165;-78
2021/08/27 18:51:58;;;;;;;1.63;1.20;;;16.00;99.90;;;;;;2631555;46;20197;-78
2021/08/27 18:54:27;;;;;;;1.42;1.10;;;15.90;99.90;;;;;;2631207;54;20140;-79
2021/08/27 18:56:56;;;;;;;1.38;1.27;;;16.00;99.90;;;;;;2631376;46;20134;-78
2021/08/27 18:59:25;;;;;;;2.35;1.90;;;15.80;99.90;;;;;;2631242;54;20828;-79
2021/08/27 19:01:55;;;;;;;1.73;1.27;;;15.80;99.90;;;;;;2631318;47;20176;-78
2021/08/27 19:04:23;;;;;;;1.33;1.23;;;15.90;99.90;;;;;;2631167;51;20152;-77
2021/08/27 19:06:53;;;;;;;2.92;1.98;;;15.80;99.90;;;;;;2631267;54;20130;-78
2021/08/27 19:09:25;;;;;;;1.70;1.60;;;15.80;99.90;;;;;;2631308;54;20778;-78
2021/08/27 19:11:54;;;;;;;2.13;1.92;;;15.80;99.90;;;;;;2631094;54;20137;-78
2021/08/27 19:14:23;;;;;;;3.25;2.13;;;15.70;99.90;;;;;;2631168;47;20140;-77
2021/08/27 19:16:52;;;;;;;3.92;1.88;;;15.60;99.90;;;;;;2631239;47;20146;-79
2021/08/27 19:19:21;;;;;;;1.92;1.83;;;15.50;99.90;;;;;;2631248;54;20181;-78
2021/08/27 19:21:49;;;;;;;1.70;1.52;;;15.60;99.90;;;;;;2631244;47;20202;-78
2021/08/27 19:24:18;;;;;;;1.90;1.80;;;15.70;99.90;;;;;;2631190;46;20145;-76
2021/08/27 19:26:50;;;;;;;1.48;1.38;;;15.90;99.90;;;;;;2631175;54;20134;-78
2021/08/27 19:29:19;;;;;;;2.08;1.75;;;15.80;99.90;;;;;;2631209;46;20161;-78
2021/08/27 19:31:48;;;;;;;3.63;1.55;;;15.90;99.90;;;;;;2630832;47;20153;-78
2021/08/27 19:34:17;;;;;;;2.03;1.52;;;15.70;99.90;;;;;;2631215;47;20149;-77
2021/08/27 19:36:47;;;;;;;2.15;1.67;;;15.80;99.90;;;;;;2631242;46;20146;-78
2021/08/27 19:39:16;;;;;;;2.10;1.90;;;15.70;99.90;;;;;;2631122;54;20171;-78
2021/08/27 19:41:44;;;;;;;1.65;1.55;;;15.70;99.90;;;;;;2634418;39;20689;-78
2021/08/27 19:44:16;;;;;;;3.70;2.00;;;15.50;99.90;;;;;;2631228;46;20136;-78
2021/08/27 19:46:44;;;;;;;1.60;1.55;;;15.50;99.90;;;;;;2630935;47;20896;-78
2021/08/27 19:49:13;;;;;;;6.13;1.63;;;15.60;99.90;;;;;;2631096;54;20196;-78
2021/08/27 19:51:42;;;;;;;2.33;1.98;;;16.00;99.90;;;;;;2631149;54;20164;-79
2021/08/27 19:54:11;;;;;;;1.98;1.45;;;16.10;99.90;;;;;;2630935;51;20829;-78
2021/08/27 19:56:39;;;;;;;2.08;1.83;;;15.90;99.90;;;;;;2630935;47;20129;-78
2021/08/27 19:59:08;;;;;;;2.28;1.88;;;15.70;99.90;;;;;;2631101;47;20197;-79
2021/08/27 20:01:39;;;;;;;2.67;1.92;;;15.60;99.90;;;;;;2630979;47;20149;-78
2021/08/27 20:04:08;;;;;;;1.65;1.55;;;15.50;99.90;;;;;;2631102;47;20201;-79
2021/08/27 20:06:37;;;;;;;2.17;1.98;;;15.40;99.90;;;;;;2630995;47;20172;-79
2021/08/27 20:09:05;;;;;;;3.65;1.75;;;15.50;99.90;;;;;;2631062;47;20225;-79
2021/08/27 20:11:34;;;;;;;2.35;2.15;;;15.50;99.90;;;;;;2631154;54;20889;-79
2021/08/27 20:14:03;;;;;;;3.13;2.00;;;15.40;99.90;;;;;;2631018;47;20169;-77
2021/08/27 20:16:32;;;;;;;2.65;2.20;;;15.60;99.90;;;;;;2630939;54;20152;-79
2021/08/27 20:19:03;;;;;;;2.53;2.35;;;15.70;99.90;;;;;;2631011;47;20820;-79
2021/08/27 20:21:32;;;;;;;3.08;2.88;;;15.50;99.90;;;;;;2631197;47;20149;-78
2021/08/27 20:24:01;;;;;;;3.17;2.90;;;15.30;99.90;;;;;;2631100;46;20133;-78
2021/08/27 20:26:30;;;;;;;2.92;2.63;;;15.20;99.90;;;;;;2639772;39;20754;-80
2021/08/27 20:28:59;;;;;;;2.75;2.55;;;15.20;99.90;;;;;;2631064;47;20165;-78
2021/08/27 20:31:28;;;;;;;2.83;2.63;;;15.20;99.90;;;;;;2631055;54;20140;-78
2021/08/27 20:33:56;;;;;;;2.80;2.60;;;15.10;99.90;;;;;;2631063;47;20766;-79
2021/08/27 20:36:28;;;;;;;4.40;3.10;;;15.20;99.90;;;;;;2630682;47;20145;-79
2021/08/27 20:38:56;;;;;;;2.97;2.67;;;15.30;99.90;;;;;;2631047;47;20184;-78
2021/08/27 20:41:25;;;;;;;3.60;3.30;;;15.10;99.90;;;;;;2630975;47;20197;-79
2021/08/27 20:43:59;;;;;;;2.63;2.42;;;15.10;99.90;;;;;;2630958;47;20137;-78
2021/08/27 20:46:28;;;;;;;2.70;2.50;;;15.00;99.90;;;;;;2630855;54;20153;-79
2021/08/27 20:48:56;;;;;;;3.50;3.17;;;14.80;99.90;;;;;;2635070;39;20772;-79
2021/08/27 20:51:28;;;;;;;3.08;2.88;;;14.80;99.90;;;;;;2631023;47;20152;-78
2021/08/27 20:53:56;;;;;;;3.35;3.03;;;14.90;99.90;;;;;;2630997;46;20153;-78
2021/08/27 20:56:26;;;;;;;3.33;3.05;;;14.80;99.90;;;;;;2630472;47;20721;-80
2021/08/27 20:58:54;;;;;;;3.15;2.63;;;14.80;99.90;;;;;;2630929;54;20165;-79
2021/08/27 21:01:23;;;;;;;3.63;3.35;;;14.70;99.90;;;;;;2630905;46;20146;-78
2021/08/27 21:03:52;;;;;;;5.82;3.15;;;14.60;99.90;;;;;;2635244;31;20745;-78
2021/08/27 21:06:21;;;;;;;3.08;2.80;;;14.50;99.90;;;;;;2630483;54;20157;-78
2021/08/27 21:08:52;;;;;;;3.40;3.13;;;14.30;99.90;;;;;;2630927;46;20165;-78
2021/08/27 21:11:21;;;;;;;4.13;3.80;;;14.30;99.90;;;;;;2630850;54;20157;-78
2021/08/27 21:13:50;;;;;;;4.60;4.20;;;14.20;99.90;;;;;;2630928;46;20148;-77
2021/08/27 21:16:18;;;;;;;5.35;3.22;;;14.30;99.90;;;;;;2630838;46;20133;-78
2021/08/27 21:18:47;;;;;;;3.10;2.90;;;14.50;99.90;;;;;;2630831;46;20201;-79
2021/08/27 21:21:16;;;;;;;4.03;3.72;;;14.20;99.90;;;;;;2630914;47;20145;-79
2021/08/27 21:23:44;;;;;;;4.10;3.70;;;14.00;99.90;;;;;;2630899;47;20149;-78
2021/08/27 21:26:16;;;;;;;5.10;3.00;;;14.10;99.90;;;;;;2630595;54;20137;-80
2021/08/27 21:28:45;;;;;;;8.60;3.33;;;14.00;99.90;;;;;;2630858;46;20175;-80
2021/08/27 21:31:13;;;;;;;3.40;3.10;;;13.90;99.90;;;;;;2630863;54;20193;-78
2021/08/27 21:33:42;;;;;;;4.22;3.83;;;13.80;99.90;;;;;;2630911;46;20182;-78
2021/08/27 21:36:11;;;;;;;4.63;3.78;;;13.70;99.90;;;;;;2630664;47;20145;-79
2021/08/27 21:38:40;;;;;;;5.10;3.70;;;13.70;99.90;;;;;;2630450;47;20168;-79
2021/08/27 21:41:08;;;;;;;3.75;3.47;;;13.90;99.90;;;;;;2630928;47;20140;-79
2021/08/27 21:43:40;;;;;;;3.92;3.55;;;13.90;99.90;;;;;;2639165;39;20699;-78
2021/08/27 21:46:09;;;;;;;5.22;3.70;;;13.80;99.90;;;;;;2630681;47;20134;-79
2021/08/27 21:48:37;;;;;;;5.05;3.88;;;13.70;99.90;;;;;;2630724;47;20909;-77
2021/08/27 21:51:07;;;;;;;5.25;4.35;;;13.70;99.90;;;;;;2630709;47;20148;-78
2021/08/27 21:53:36;;;;;;;3.60;3.35;;;13.70;99.90;;;;;;2639835;39;20604;-78
2021/08/27 21:56:04;;;;;;;4.22;3.92;;;13.60;99.90;;;;;;2630617;47;20152;-77
2021/08/27 21:58:33;;;;;;;3.85;3.40;;;13.60;99.90;;;;;;2630599;47;20157;-78
2021/08/27 22:01:04;;;;;;;5.80;4.05;;;13.40;99.90;;;;;;2630697;47;20833;-78
2021/08/27 22:03:33;;;;;;;4.75;3.83;;;13.50;99.90;;;;;;2630535;54;20152;-79
2021/08/27 22:06:02;;;;;;;4.57;4.22;;;13.50;99.90;;;;;;2632629;39;20798;-78
2021/08/27 22:08:31;;;;;;;5.38;3.70;;;13.30;99.90;;;;;;2639656;39;20881;-80
2021/08/27 22:10:59;;;;;;;3.70;3.40;;;13.40;99.90;;;;;;2630680;54;20175;-79
2021/08/27 22:13:28;;;;;;;3.75;3.55;;;13.40;99.90;;;;;;2633740;39;20740;-79
2021/08/27 22:15:57;;;;;;;4.07;3.78;;;13.50;99.90;;;;;;2630573;54;20137;-79
2021/08/27 22:18:28;;;;;;;4.47;3.92;;;13.50;99.90;;;;;;2631341;54;20841;-79
2021/08/27 22:20:57;;;;;;;4.85;4.35;;;13.50;99.90;;;;;;2631494;54;20185;-78
2021/08/27 22:23:26;;;;;;;4.00;3.63;;;13.70;99.90;;;;;;2640362;39;20627;-79
2021/08/27 22:25:54;;;;;;;4.30;3.92;;;13.70;99.90;;;;;;2637346;39;20616;-79
2021/08/27 22:28:23;;;;;;;5.05;3.97;;;13.50;99.90;;;;;;2631391;47;20209;-78
2021/08/27 22:30:52;;;;;;;4.28;3.60;;;13.50;99.90;;;;;;2631892;39;20834;-79
2021/08/27 22:33:23;;;;;;;4.40;4.10;;;13.60;99.90;;;;;;2631677;39;20820;-79
2021/08/27 22:35:54;;;;;;;6.32;4.85;;;13.60;99.90;;;;;;2631301;54;20177;-79
2021/08/27 22:38:24;;;;;;;4.18;3.88;;;13.50;99.90;;;;;;2638597;39;20751;-77
2021/08/27 22:40:53;;;;;;;4.03;3.72;;;13.40;99.90;;;;;;2630853;47;20161;-78
2021/08/27 22:43:22;;;;;;;4.93;3.58;;;13.30;99.90;;;;;;2631292;47;20200;-77
2021/08/27 22:45:50;;;;;;;3.85;3.55;;;13.30;99.90;;;;;;2631168;54;20140;-77
2021/08/27 22:48:19;;;;;;;4.60;4.30;;;13.20;99.90;;;;;;2641317;39;20480;-77
2021/08/27 22:50:48;;;;;;;5.72;4.45;;;13.10;99.90;;;;;;2631354;54;20149;-77
2021/08/27 22:53:19;;;;;;;4.95;4.45;;;13.10;99.90;;;;;;2630675;54;20129;-77
2021/08/27 22:55:49;;;;;;;4.70;4.30;;;13.10;99.90;;;;;;2630547;46;20149;-77
2021/08/27 22:58:18;;;;;;;4.35;4.05;;;13.10;99.90;;;;;;2631020;54;20180;-77
2021/08/27 23:00:47;;;;;;;7.70;4.82;;;13.20;99.90;;;;;;2631036;54;20187;-77
2021/08/27 23:03:16;;;;;;;4.30;3.90;;;13.20;99.90;;;;;;2630981;46;20149;-77
2021/08/27 23:05:44;;;;;;;5.43;4.97;;;13.40;99.90;;;;;;2631052;54;20165;-79
2021/08/27 23:08:13;;;;;;;3.90;3.65;;;13.50;99.90;;;;;;2631180;54;20233;-77
2021/08/27 23:10:44;;;;;;;3.90;3.60;;;13.50;99.90;;;;;;2631229;54;20181;-77
2021/08/27 23:13:13;;;;;;;4.43;4.13;;;13.40;99.90;;;;;;2630982;46;20153;-77
2021/08/27 23:15:42;;;;;;;4.65;4.22;;;13.40;99.90;;;;;;2631068;47;20130;-78
2021/08/27 23:18:12;;;;;;;5.07;4.68;;;13.50;99.90;;;;;;2631015;54;20188;-77
2021/08/27 23:20:40;;;;;;;5.72;3.83;;;13.40;99.90;;;;;;2631037;46;20841;-77
2021/08/27 23:23:09;;;;;;;7.97;4.38;;;13.40;99.90;;;;;;2631214;46;20181;-76
2021/08/27 23:25:41;;;;;;;4.30;3.72;;;13.40;99.90;;;;;;2631192;46;20148;-77
2021/08/27 23:28:12;;;;;;;3.92;3.63;;;13.30;99.90;;;;;;2631074;46;20157;-77
2021/08/27 23:30:41;;;;;;;3.90;3.60;;;13.50;99.90;;;;;;2631150;54;20186;-77
2021/08/27 23:33:09;;;;;;;5.55;3.95;;;13.60;99.90;;;;;;2631175;54;20899;-77
2021/08/27 23:35:38;;;;;;;4.40;4.00;;;13.60;99.90;;;;;;2631133;46;20173;-78
2021/08/27 23:38:07;;;;;;;4.55;4.15;;;13.60;99.90;;;;;;2637641;39;20761;-78
2021/08/27 23:40:36;;;;;;;4.80;4.45;;;13.60;99.90;;;;;;2631215;47;20180;-78
2021/08/27 23:43:05;;;;;;;4.15;3.85;;;13.60;99.90;;;;;;2631210;47;20146;-77
2021/08/27 23:45:36;;;;;;;5.35;3.80;;;13.60;99.90;;;;;;2630958;47;20141;-78
2021/08/27 23:48:05;;;;;;;4.18;3.78;;;13.80;99.90;;;;;;2631072;47;20205;-78
2021/08/27 23:50:34;;;;;;;5.63;3.92;;;13.90;99.90;;;;;;2631209;47;20178;-78
2021/08/27 23:53:03;;;;;;;5.00;3.95;;;14.00;99.90;;;;;;2631099;54;20928;-78
2021/08/27 23:55:32;;;;;;;4.93;4.53;;;14.00;99.90;;;;;;2630669;47;20156;-78
2021/08/27 23:58:01;;;;;;;4.63;4.22;;;14.10;99.90;;;;;;2629647;47;20230;-75
